sensor_id;sensor_type;location;lat;lon;timestamp;P1;durP1;ratioP1;P2;durP2;ratioP2
27684;SDS011;46113;50.130;8.526;2023-06-04T07:00:29;1.85;;;0.70;;
27684;SDS011;46113;50.130;8.526;2023-06-04T07:02:59;0.85;;;0.80;;
27684;SDS011;46113;50.130;8.526;2023-06-04T07:05:26;4.93;;;0.65;;
27684;SDS011;46113;50.130;8.526;2023-06-04T07:07:53;0.75;;;0.60;;
27684;SDS011;46113;50.130;8.526;2023-06-04T07:10:20;0.70;;;0.70;;
27684;SDS011;46113;50.130;8.526;2023-06-04T07:12:47;3.13;;;0.98;;
27684;SDS011;46113;50.130;8.526;2023-06-04T07:15:13;0.80;;;0.80;;
27684;SDS011;46113;50.130;8.526;2023-06-04T07:17:40;2.92;;;1.17;;
27684;SDS011;46113;50.130;8.526;2023-06-04T07:20:07;1.00;;;0.90;;
27684;SDS011;46113;50.130;8.526;2023-06-04T07:22:35;0.98;;;0.80;;
27684;SDS011;46113;50.130;8.526;2023-06-04T07:25:02;1.33;;;0.77;;
27684;SDS011;46113;50.130;8.526;2023-06-04T07:27:29;9.27;;;1.00;;
27684;SDS011;46113;50.130;8.526;2023-06-04T07:29:56;3.22;;;1.17;;
27684;SDS011;46113;50.130;8.526;2023-06-04T07:32:22;2.00;;;0.75;;
27684;SDS011;46113;50.130;8.526;2023-06-04T07:34:49;1.15;;;0.73;;
27684;SDS011;46113;50.130;8.526;2023-06-04T07:37:16;3.35;;;0.80;;
27684;SDS011;46113;50.130;8.526;2023-06-04T07:39:42;3.08;;;1.38;;
27684;SDS011;46113;50.130;8.526;2023-06-04T07:42:09;1.05;;;0.95;;
27684;SDS011;46113;50.130;8.526;2023-06-04T07:44:36;1.33;;;0.70;;
27684;SDS011;46113;50.130;8.526;2023-06-04T07:47:04;2.15;;;0.98;;
27684;SDS011;46113;50.130;8.526;2023-06-04T07:49:30;1.15;;;1.05;;
27684;SDS011;46113;50.130;8.526;2023-06-04T07:51:57;2.20;;;1.08;;
27684;SDS011;46113;50.130;8.526;2023-06-04T07:54:24;1.20;;;1.10;;
27684;SDS011;46113;50.130;8.526;2023-06-04T07:56:51;3.75;;;0.90;;
27684;SDS011;46113;50.130;8.526;2023-06-04T07:59:22;0.77;;;0.70;;
27684;SDS011;46113;50.130;8.526;2023-06-04T08:01:50;1.08;;;0.80;;
27684;SDS011;46113;50.130;8.526;2023-06-04T08:04:20;1.17;;;0.65;;
27684;SDS011;46113;50.130;8.526;2023-06-04T08:06:48;1.83;;;0.75;;
27684;SDS011;46113;50.130;8.526;2023-06-04T08:09:18;1.45;;;1.08;;
27684;SDS011;46113;50.130;8.526;2023-06-04T08:11:57;0.75;;;0.75;;
27684;SDS011;46113;50.130;8.526;2023-06-04T08:14:24;5.25;;;0.80;;
27684;SDS011;46113;50.130;8.526;2023-06-04T08:16:54;1.33;;;0.77;;
27684;SDS011;46113;50.130;8.526;2023-06-04T08:19:21;0.55;;;0.55;;
27684;SDS011;46113;50.130;8.526;2023-06-04T08:21:48;1.67;;;0.70;;
27684;SDS011;46113;50.130;8.526;2023-06-04T08:24:15;1.05;;;0.80;;
27684;SDS011;46113;50.130;8.526;2023-06-04T08:26:42;2.03;;;0.70;;
27684;SDS011;46113;50.130;8.526;2023-06-04T08:29:09;2.53;;;0.80;;
27684;SDS011;46113;50.130;8.526;2023-06-04T08:31:36;1.17;;;0.85;;
27684;SDS011;46113;50.130;8.526;2023-06-04T08:34:05;2.28;;;1.00;;
27684;SDS011;46113;50.130;8.526;2023-06-04T08:36:35;0.80;;;0.80;;
27684;SDS011;46113;50.130;8.526;2023-06-04T08:39:02;6.70;;;0.90;;
27684;SDS011;46113;50.130;8.526;2023-06-04T08:41:46;3.90;;;1.45;;
27684;SDS011;46113;50.130;8.526;2023-06-04T08:44:28;2.33;;;1.00;;
27684;SDS011;46113;50.130;8.526;2023-06-04T08:46:57;5.47;;;1.90;;
27684;SDS011;46113;50.130;8.526;2023-06-04T08:49:33;1.02;;;0.57;;
27684;SDS011;46113;50.130;8.526;2023-06-04T08:52:04;2.72;;;0.90;;
27684;SDS011;46113;50.130;8.526;2023-06-04T08:54:32;1.55;;;0.75;;
27684;SDS011;46113;50.130;8.526;2023-06-04T08:57:04;2.28;;;0.70;;
27684;SDS011;46113;50.130;8.526;2023-06-04T08:59:43;0.75;;;0.75;;
27684;SDS011;46113;50.130;8.526;2023-06-04T09:02:40;2.53;;;0.93;;
27684;SDS011;46113;50.130;8.526;2023-06-04T09:05:28;2.00;;;0.75;;
27684;SDS011;46113;50.130;8.526;2023-06-04T09:08:34;3.58;;;0.82;;
27684;SDS011;46113;50.130;8.526;2023-06-04T09:11:25;3.47;;;0.95;;
27684;SDS011;46113;50.130;8.526;2023-06-04T09:15:28;2.05;;;0.82;;
27684;SDS011;46113;50.130;8.526;2023-06-04T09:18:50;1.02;;;0.90;;
27684;SDS011;46113;50.130;8.526;2023-06-04T09:21:25;1.92;;;0.65;;
27684;SDS011;46113;50.130;8.526;2023-06-04T09:24:48;2.55;;;1.13;;
27684;SDS011;46113;50.130;8.526;2023-06-04T09:27:28;0.75;;;0.70;;
27684;SDS011;46113;50.130;8.526;2023-06-04T09:30:40;1.35;;;0.88;;
27684;SDS011;46113;50.130;8.526;2023-06-04T09:33:52;1.67;;;1.10;;
27684;SDS011;46113;50.130;8.526;2023-06-04T09:37:13;2.60;;;1.00;;
27684;SDS011;46113;50.130;8.526;2023-06-04T09:39:51;1.30;;;1.00;;
27684;SDS011;46113;50.130;8.526;2023-06-04T09:43:20;1.67;;;0.95;;
27684;SDS011;46113;50.130;8.526;2023-06-04T09:46:23;0.60;;;0.60;;
27684;SDS011;46113;50.130;8.526;2023-06-04T09:53:39;2.03;;;0.77;;
27684;SDS011;46113;50.130;8.526;2023-06-04T10:00:03;0.80;;;0.80;;
27684;SDS011;46113;50.130;8.526;2023-06-04T10:02:58;1.98;;;1.40;;
27684;SDS011;46113;50.130;8.526;2023-06-04T10:05:32;1.35;;;0.88;;
27684;SDS011;46113;50.130;8.526;2023-06-04T10:08:02;1.80;;;0.60;;
27684;SDS011;46113;50.130;8.526;2023-06-04T10:10:39;1.40;;;1.02;;
27684;SDS011;46113;50.130;8.526;2023-06-04T10:13:07;0.95;;;0.80;;
27684;SDS011;46113;50.130;8.526;2023-06-04T10:15:43;1.20;;;0.90;;
27684;SDS011;46113;50.130;8.526;2023-06-04T10:18:14;4.30;;;1.85;;
27684;SDS011;46113;50.130;8.526;2023-06-04T10:20:44;2.97;;;0.50;;
27684;SDS011;46113;50.130;8.526;2023-06-04T10:23:12;1.70;;;0.70;;
27684;SDS011;46113;50.130;8.526;2023-06-04T10:25:39;1.55;;;1.00;;
27684;SDS011;46113;50.130;8.526;2023-06-04T10:28:23;5.40;;;0.75;;
27684;SDS011;46113;50.130;8.526;2023-06-04T10:30:50;2.25;;;1.10;;
27684;SDS011;46113;50.130;8.526;2023-06-04T10:33:17;1.25;;;0.82;;
27684;SDS011;46113;50.130;8.526;2023-06-04T10:35:46;6.28;;;0.75;;
27684;SDS011;46113;50.130;8.526;2023-06-04T10:38:29;2.90;;;0.95;;
27684;SDS011;46113;50.130;8.526;2023-06-04T10:41:15;2.35;;;0.52;;
27684;SDS011;46113;50.130;8.526;2023-06-04T10:46:36;4.43;;;0.60;;
27684;SDS011;46113;50.130;8.526;2023-06-04T10:49:36;2.55;;;0.95;;
27684;SDS011;46113;50.130;8.526;2023-06-04T10:52:12;3.53;;;0.65;;
27684;SDS011;46113;50.130;8.526;2023-06-04T10:55:05;5.95;;;0.73;;
27684;SDS011;46113;50.130;8.526;2023-06-04T10:57:35;2.78;;;1.40;;
27684;SDS011;46113;50.130;8.526;2023-06-04T11:00:35;1.33;;;0.80;;
27684;SDS011;46113;50.130;8.526;2023-06-04T11:03:11;1.25;;;0.77;;
27684;SDS011;46113;50.130;8.526;2023-06-04T11:05:44;0.57;;;0.50;;
27684;SDS011;46113;50.130;8.526;2023-06-04T11:08:12;0.60;;;0.60;;
27684;SDS011;46113;50.130;8.526;2023-06-04T11:10:52;2.70;;;0.77;;
27684;SDS011;46113;50.130;8.526;2023-06-04T11:13:29;1.00;;;0.73;;
27684;SDS011;46113;50.130;8.526;2023-06-04T11:15:56;0.88;;;0.52;;
27684;SDS011;46113;50.130;8.526;2023-06-04T11:18:26;2.33;;;0.73;;
27684;SDS011;46113;50.130;8.526;2023-06-04T11:21:15;1.33;;;0.70;;
27684;SDS011;46113;50.130;8.526;2023-06-04T11:24:35;2.75;;;0.57;;
27684;SDS011;46113;50.130;8.526;2023-06-04T11:27:14;0.80;;;0.70;;
27684;SDS011;46113;50.130;8.526;2023-06-04T11:30:06;1.00;;;0.75;;
27684;SDS011;46113;50.130;8.526;2023-06-04T11:33:05;4.18;;;0.63;;
27684;SDS011;46113;50.130;8.526;2023-06-04T11:35:40;6.22;;;0.77;;
27684;SDS011;46113;50.130;8.526;2023-06-04T11:38:12;0.68;;;0.55;;
27684;SDS011;46113;50.130;8.526;2023-06-04T11:40:58;3.60;;;1.30;;
27684;SDS011;46113;50.130;8.526;2023-06-04T11:43:29;1.88;;;0.70;;
27684;SDS011;46113;50.130;8.526;2023-06-04T11:45:59;7.25;;;1.23;;
27684;SDS011;46113;50.130;8.526;2023-06-04T11:48:37;0.95;;;0.77;;
27684;SDS011;46113;50.130;8.526;2023-06-04T11:51:07;6.22;;;0.85;;
27684;SDS011;46113;50.130;8.526;2023-06-04T11:53:36;2.75;;;0.90;;
27684;SDS011;46113;50.130;8.526;2023-06-04T11:56:04;1.45;;;0.70;;
27684;SDS011;46113;50.130;8.526;2023-06-04T11:58:31;1.60;;;0.95;;
27684;SDS011;46113;50.130;8.526;2023-06-04T12:01:00;1.40;;;0.93;;
27684;SDS011;46113;50.130;8.526;2023-06-04T12:03:33;2.92;;;0.75;;
27684;SDS011;46113;50.130;8.526;2023-06-04T12:06:09;1.25;;;0.80;;
27684;SDS011;46113;50.130;8.526;2023-06-04T12:08:46;3.17;;;1.00;;
27684;SDS011;46113;50.130;8.526;2023-06-04T12:11:24;0.68;;;0.55;;
27684;SDS011;46113;50.130;8.526;2023-06-04T12:14:07;1.02;;;0.80;;
27684;SDS011;46113;50.130;8.526;2023-06-04T12:19:08;2.15;;;1.00;;
27684;SDS011;46113;50.130;8.526;2023-06-04T12:21:36;8.10;;;0.90;;
27684;SDS011;46113;50.130;8.526;2023-06-04T12:26:36;1.27;;;0.82;;
27684;SDS011;46113;50.130;8.526;2023-06-04T12:29:11;1.75;;;0.98;;
27684;SDS011;46113;50.130;8.526;2023-06-04T12:31:45;1.77;;;1.05;;
27684;SDS011;46113;50.130;8.526;2023-06-04T12:34:13;4.80;;;0.80;;
27684;SDS011;46113;50.130;8.526;2023-06-04T12:36:41;4.00;;;0.82;;
27684;SDS011;46113;50.130;8.526;2023-06-04T12:39:09;0.70;;;0.52;;
27684;SDS011;46113;50.130;8.526;2023-06-04T12:41:45;2.80;;;0.83;;
27684;SDS011;46113;50.130;8.526;2023-06-04T12:44:12;1.20;;;0.80;;
27684;SDS011;46113;50.130;8.526;2023-06-04T12:46:39;2.45;;;0.90;;
27684;SDS011;46113;50.130;8.526;2023-06-04T12:49:06;3.58;;;1.40;;
27684;SDS011;46113;50.130;8.526;2023-06-04T12:51:33;1.38;;;0.75;;
27684;SDS011;46113;50.130;8.526;2023-06-04T12:53:59;5.15;;;1.17;;
27684;SDS011;46113;50.130;8.526;2023-06-04T12:56:27;2.30;;;1.00;;
27684;SDS011;46113;50.130;8.526;2023-06-04T12:58:53;1.92;;;1.30;;
27684;SDS011;46113;50.130;8.526;2023-06-04T13:01:24;2.75;;;1.00;;
27684;SDS011;46113;50.130;8.526;2023-06-04T13:03:54;2.15;;;1.38;;
27684;SDS011;46113;50.130;8.526;2023-06-04T13:06:22;1.80;;;1.10;;
27684;SDS011;46113;50.130;8.526;2023-06-04T13:08:49;5.22;;;1.30;;
27684;SDS011;46113;50.130;8.526;2023-06-04T13:11:20;1.02;;;1.02;;
27684;SDS011;46113;50.130;8.526;2023-06-04T13:13:51;3.42;;;1.33;;
27684;SDS011;46113;50.130;8.526;2023-06-04T13:16:24;1.35;;;1.00;;
27684;SDS011;46113;50.130;8.526;2023-06-04T13:18:51;1.38;;;1.10;;
27684;SDS011;46113;50.130;8.526;2023-06-04T13:21:18;4.78;;;1.40;;
27684;SDS011;46113;50.130;8.526;2023-06-04T13:23:45;3.63;;;2.15;;
27684;SDS011;46113;50.130;8.526;2023-06-04T13:26:16;2.28;;;1.52;;
27684;SDS011;46113;50.130;8.526;2023-06-04T13:28:44;3.80;;;1.42;;
27684;SDS011;46113;50.130;8.526;2023-06-04T13:31:11;5.70;;;2.08;;
27684;SDS011;46113;50.130;8.526;2023-06-04T13:33:37;2.53;;;1.80;;
27684;SDS011;46113;50.130;8.526;2023-06-04T13:36:05;1.65;;;1.33;;
27684;SDS011;46113;50.130;8.526;2023-06-04T13:38:34;2.60;;;1.90;;
27684;SDS011;46113;50.130;8.526;2023-06-04T13:41:08;3.22;;;1.40;;
27684;SDS011;46113;50.130;8.526;2023-06-04T13:43:36;3.35;;;1.52;;
27684;SDS011;46113;50.130;8.526;2023-06-04T13:46:04;4.65;;;1.63;;
27684;SDS011;46113;50.130;8.526;2023-06-04T13:48:31;1.85;;;1.58;;
27684;SDS011;46113;50.130;8.526;2023-06-04T13:50:58;2.85;;;1.75;;
27684;SDS011;46113;50.130;8.526;2023-06-04T13:53:27;6.45;;;1.77;;
27684;SDS011;46113;50.130;8.526;2023-06-04T13:56:12;3.42;;;2.15;;
27684;SDS011;46113;50.130;8.526;2023-06-04T13:58:49;2.72;;;2.20;;
27684;SDS011;46113;50.130;8.526;2023-06-04T14:01:19;1.90;;;1.70;;
27684;SDS011;46113;50.130;8.526;2023-06-04T14:03:52;2.35;;;1.60;;
27684;SDS011;46113;50.130;8.526;2023-06-04T14:06:30;2.50;;;2.17;;
27684;SDS011;46113;50.130;8.526;2023-06-04T14:08:57;3.60;;;1.90;;
27684;SDS011;46113;50.130;8.526;2023-06-04T14:11:24;4.70;;;2.28;;
27684;SDS011;46113;50.130;8.526;2023-06-04T14:13:54;3.80;;;1.95;;
27684;SDS011;46113;50.130;8.526;2023-06-04T14:18:57;3.25;;;2.20;;
27684;SDS011;46113;50.130;8.526;2023-06-04T14:24:17;4.00;;;2.65;;
27684;SDS011;46113;50.130;8.526;2023-06-04T14:27:08;3.65;;;2.67;;
27684;SDS011;46113;50.130;8.526;2023-06-04T14:29:49;3.10;;;2.22;;
27684;SDS011;46113;50.130;8.526;2023-06-04T15:10:55;2.83;;;2.53;;
27684;SDS011;46113;50.130;8.526;2023-06-04T15:14:32;2.55;;;2.03;;
27684;SDS011;46113;50.130;8.526;2023-06-04T15:17:02;5.30;;;2.35;;
27684;SDS011;46113;50.130;8.526;2023-06-04T15:19:30;7.13;;;4.72;;
27684;SDS011;46113;50.130;8.526;2023-06-04T15:21:59;8.07;;;4.15;;
27684;SDS011;46113;50.130;8.526;2023-06-04T15:24:28;12.88;;;4.97;;
27684;SDS011;46113;50.130;8.526;2023-06-04T15:26:56;3.30;;;2.08;;
27684;SDS011;46113;50.130;8.526;2023-06-04T15:29:23;7.70;;;2.90;;
27684;SDS011;46113;50.130;8.526;2023-06-04T15:31:51;3.00;;;1.85;;
27684;SDS011;46113;50.130;8.526;2023-06-04T15:34:24;5.55;;;3.80;;
27684;SDS011;46113;50.130;8.526;2023-06-04T15:36:51;5.78;;;1.95;;
27684;SDS011;46113;50.130;8.526;2023-06-04T15:39:28;6.00;;;4.00;;
27684;SDS011;46113;50.130;8.526;2023-06-04T15:42:00;3.28;;;1.52;;
27684;SDS011;46113;50.130;8.526;2023-06-04T15:44:27;5.97;;;1.50;;
27684;SDS011;46113;50.130;8.526;2023-06-04T15:46:54;5.13;;;1.85;;
27684;SDS011;46113;50.130;8.526;2023-06-04T15:49:21;3.40;;;2.25;;
27684;SDS011;46113;50.130;8.526;2023-06-04T15:51:55;4.10;;;3.70;;
27684;SDS011;46113;50.130;8.526;2023-06-04T15:54:37;3.22;;;1.58;;
27684;SDS011;46113;50.130;8.526;2023-06-04T15:57:13;3.90;;;1.98;;
27684;SDS011;46113;50.130;8.526;2023-06-04T15:59:42;1.63;;;1.30;;
27684;SDS011;46113;50.130;8.526;2023-06-04T16:02:10;1.77;;;1.45;;
27684;SDS011;46113;50.130;8.526;2023-06-04T16:10:28;1.52;;;1.38;;
27684;SDS011;46113;50.130;8.526;2023-06-04T16:12:57;2.70;;;1.30;;
27684;SDS011;46113;50.130;8.526;2023-06-04T16:15:24;1.80;;;1.65;;
27684;SDS011;46113;50.130;8.526;2023-06-04T16:17:53;2.70;;;1.80;;
27684;SDS011;46113;50.130;8.526;2023-06-04T16:20:21;1.48;;;1.23;;
27684;SDS011;46113;50.130;8.526;2023-06-04T16:22:48;1.52;;;1.10;;
27684;SDS011;46113;50.130;8.526;2023-06-04T16:25:15;1.85;;;1.20;;
27684;SDS011;46113;50.130;8.526;2023-06-04T16:27:45;3.50;;;1.30;;
27684;SDS011;46113;50.130;8.526;2023-06-04T16:30:13;4.22;;;1.23;;
27684;SDS011;46113;50.130;8.526;2023-06-04T16:32:40;2.67;;;1.05;;
27684;SDS011;46113;50.130;8.526;2023-06-04T16:35:08;1.90;;;0.93;;
27684;SDS011;46113;50.130;8.526;2023-06-04T16:37:36;1.90;;;1.67;;
27684;SDS011;46113;50.130;8.526;2023-06-04T16:40:11;2.97;;;1.27;;
27684;SDS011;46113;50.130;8.526;2023-06-04T16:42:39;1.75;;;1.23;;
27684;SDS011;46113;50.130;8.526;2023-06-04T16:45:19;1.65;;;1.15;;
27684;SDS011;46113;50.130;8.526;2023-06-04T16:47:46;7.10;;;1.00;;
27684;SDS011;46113;50.130;8.526;2023-06-04T16:50:15;5.97;;;1.48;;
27684;SDS011;46113;50.130;8.526;2023-06-04T16:52:42;1.30;;;0.80;;
27684;SDS011;46113;50.130;8.526;2023-06-04T16:55:10;5.32;;;1.02;;
27684;SDS011;46113;50.130;8.526;2023-06-04T16:57:37;0.80;;;0.80;;
27684;SDS011;46113;50.130;8.526;2023-06-04T17:00:05;1.35;;;1.02;;
27684;SDS011;46113;50.130;8.526;2023-06-04T17:02:54;2.55;;;0.90;;
27684;SDS011;46113;50.130;8.526;2023-06-04T17:05:21;3.22;;;1.15;;
27684;SDS011;46113;50.130;8.526;2023-06-04T17:07:51;1.35;;;1.25;;
27684;SDS011;46113;50.130;8.526;2023-06-04T17:10:18;2.47;;;1.30;;
27684;SDS011;46113;50.130;8.526;2023-06-04T17:12:49;3.03;;;1.33;;
27684;SDS011;46113;50.130;8.526;2023-06-04T17:15:16;2.30;;;0.77;;
27684;SDS011;46113;50.130;8.526;2023-06-04T17:17:43;1.98;;;1.05;;
27684;SDS011;46113;50.130;8.526;2023-06-04T17:20:10;1.73;;;0.77;;
27684;SDS011;46113;50.130;8.526;2023-06-04T17:22:41;6.43;;;1.10;;
27684;SDS011;46113;50.130;8.526;2023-06-04T17:25:08;3.55;;;1.08;;
27684;SDS011;46113;50.130;8.526;2023-06-04T17:27:38;4.20;;;0.80;;
27684;SDS011;46113;50.130;8.526;2023-06-04T17:30:05;2.55;;;0.70;;
27684;SDS011;46113;50.130;8.526;2023-06-04T17:32:40;0.98;;;0.88;;
27684;SDS011;46113;50.130;8.526;2023-06-04T17:35:10;5.18;;;0.90;;
27684;SDS011;46113;50.130;8.526;2023-06-04T17:37:39;2.75;;;0.93;;
27684;SDS011;46113;50.130;8.526;2023-06-04T17:40:06;1.35;;;1.10;;
27684;SDS011;46113;50.130;8.526;2023-06-04T17:42:33;0.85;;;0.80;;
27684;SDS011;46113;50.130;8.526;2023-06-04T17:45:03;1.92;;;1.05;;
27684;SDS011;46113;50.130;8.526;2023-06-04T17:47:30;2.15;;;1.20;;
27684;SDS011;46113;50.130;8.526;2023-06-04T17:49:57;1.17;;;1.08;;
27684;SDS011;46113;50.130;8.526;2023-06-04T17:52:26;1.00;;;0.70;;
27684;SDS011;46113;50.130;8.526;2023-06-04T17:54:56;1.30;;;0.60;;
27684;SDS011;46113;50.130;8.526;2023-06-04T17:57:23;0.77;;;0.70;;
27684;SDS011;46113;50.130;8.526;2023-06-04T17:59:50;1.00;;;0.77;;
27684;SDS011;46113;50.130;8.526;2023-06-04T18:02:16;1.02;;;0.60;;
27684;SDS011;46113;50.130;8.526;2023-06-04T18:04:43;2.78;;;0.60;;
27684;SDS011;46113;50.130;8.526;2023-06-04T18:07:10;2.40;;;0.82;;
27684;SDS011;46113;50.130;8.526;2023-06-04T18:09:36;2.08;;;1.20;;
27684;SDS011;46113;50.130;8.526;2023-06-04T18:12:04;0.57;;;0.57;;
27684;SDS011;46113;50.130;8.526;2023-06-04T18:14:34;0.60;;;0.60;;
27684;SDS011;46113;50.130;8.526;2023-06-04T18:17:01;1.52;;;0.80;;
27684;SDS011;46113;50.130;8.526;2023-06-04T18:19:28;1.10;;;0.70;;
27684;SDS011;46113;50.130;8.526;2023-06-04T18:21:55;3.00;;;0.90;;
27684;SDS011;46113;50.130;8.526;2023-06-04T18:24:21;2.80;;;0.57;;
27684;SDS011;46113;50.130;8.526;2023-06-04T18:26:48;3.50;;;0.95;;
27684;SDS011;46113;50.130;8.526;2023-06-04T18:29:15;0.70;;;0.65;;
27684;SDS011;46113;50.130;8.526;2023-06-04T18:31:41;0.90;;;0.70;;
27684;SDS011;46113;50.130;8.526;2023-06-04T18:34:17;2.70;;;1.08;;
27684;SDS011;46113;50.130;8.526;2023-06-04T18:36:48;1.83;;;0.85;;
27684;SDS011;46113;50.130;8.526;2023-06-04T18:39:23;2.05;;;0.90;;
27684;SDS011;46113;50.130;8.526;2023-06-04T18:41:50;2.20;;;0.90;;
27684;SDS011;46113;50.130;8.526;2023-06-04T18:44:21;1.48;;;0.80;;
27684;SDS011;46113;50.130;8.526;2023-06-04T18:46:50;1.63;;;0.82;;
27684;SDS011;46113;50.130;8.526;2023-06-04T18:49:28;3.08;;;0.85;;
27684;SDS011;46113;50.130;8.526;2023-06-04T18:51:55;3.10;;;1.00;;
27684;SDS011;46113;50.130;8.526;2023-06-04T18:54:26;0.85;;;0.70;;
27684;SDS011;46113;50.130;8.526;2023-06-04T18:56:53;1.05;;;0.80;;
27684;SDS011;46113;50.130;8.526;2023-06-04T18:59:21;0.93;;;0.70;;
27684;SDS011;46113;50.130;8.526;2023-06-04T19:01:49;3.80;;;0.70;;
27684;SDS011;46113;50.130;8.526;2023-06-04T19:04:21;6.30;;;1.38;;
27684;SDS011;46113;50.130;8.526;2023-06-04T19:06:48;1.25;;;0.70;;
27684;SDS011;46113;50.130;8.526;2023-06-04T19:09:14;1.33;;;0.80;;
27684;SDS011;46113;50.130;8.526;2023-06-04T19:11:42;0.68;;;0.52;;
27684;SDS011;46113;50.130;8.526;2023-06-04T19:14:09;1.20;;;0.70;;
27684;SDS011;46113;50.130;8.526;2023-06-04T19:16:40;1.23;;;0.70;;
27684;SDS011;46113;50.130;8.526;2023-06-04T19:24:59;3.42;;;0.70;;
27684;SDS011;46113;50.130;8.526;2023-06-04T19:27:46;3.60;;;1.08;;
27684;SDS011;46113;50.130;8.526;2023-06-04T19:30:42;5.72;;;0.80;;
27684;SDS011;46113;50.130;8.526;2023-06-04T19:33:35;0.80;;;0.80;;
27684;SDS011;46113;50.130;8.526;2023-06-04T19:36:28;1.40;;;0.80;;
27684;SDS011;46113;50.130;8.526;2023-06-04T19:38:58;2.30;;;0.73;;
27684;SDS011;46113;50.130;8.526;2023-06-04T19:41:26;1.48;;;0.80;;
27684;SDS011;46113;50.130;8.526;2023-06-04T19:43:53;1.27;;;0.75;;
27684;SDS011;46113;50.130;8.526;2023-06-04T19:46:20;1.30;;;0.65;;
27684;SDS011;46113;50.130;8.526;2023-06-04T19:48:47;3.28;;;0.82;;
27684;SDS011;46113;50.130;8.526;2023-06-04T19:51:14;2.17;;;0.70;;
27684;SDS011;46113;50.130;8.526;2023-06-04T19:53:41;3.90;;;0.88;;
27684;SDS011;46113;50.130;8.526;2023-06-04T20:07:39;4.30;;;0.80;;
27684;SDS011;46113;50.130;8.526;2023-06-04T20:10:41;0.85;;;0.80;;
27684;SDS011;46113;50.130;8.526;2023-06-04T20:13:08;3.03;;;0.60;;
27684;SDS011;46113;50.130;8.526;2023-06-04T20:15:44;1.65;;;0.60;;
27684;SDS011;46113;50.130;8.526;2023-06-04T20:18:47;0.77;;;0.60;;
27684;SDS011;46113;50.130;8.526;2023-06-04T20:35:15;2.50;;;0.60;;
27684;SDS011;46113;50.130;8.526;2023-06-04T20:37:47;4.75;;;0.80;;
27684;SDS011;46113;50.130;8.526;2023-06-04T20:43:01;1.83;;;0.75;;
27684;SDS011;46113;50.130;8.526;2023-06-04T20:46:00;0.80;;;0.60;;
27684;SDS011;46113;50.130;8.526;2023-06-04T20:55:17;1.45;;;0.55;;
27684;SDS011;46113;50.130;8.526;2023-06-04T20:57:45;1.30;;;0.50;;
27684;SDS011;46113;50.130;8.526;2023-06-04T21:00:12;1.02;;;0.90;;
27684;SDS011;46113;50.130;8.526;2023-06-04T21:02:39;1.08;;;0.70;;
27684;SDS011;46113;50.130;8.526;2023-06-04T21:05:06;2.03;;;0.82;;
27684;SDS011;46113;50.130;8.526;2023-06-04T21:07:36;0.90;;;0.73;;
27684;SDS011;46113;50.130;8.526;2023-06-04T21:10:02;1.77;;;0.70;;
27684;SDS011;46113;50.130;8.526;2023-06-04T21:12:29;0.98;;;0.47;;
27684;SDS011;46113;50.130;8.526;2023-06-04T21:14:56;5.13;;;0.60;;
27684;SDS011;46113;50.130;8.526;2023-06-04T21:17:23;3.15;;;0.82;;
27684;SDS011;46113;50.130;8.526;2023-06-04T21:19:52;0.75;;;0.50;;
27684;SDS011;46113;50.130;8.526;2023-06-04T21:22:19;1.50;;;0.70;;
27684;SDS011;46113;50.130;8.526;2023-06-04T21:24:46;1.10;;;0.52;;
27684;SDS011;46113;50.130;8.526;2023-06-04T21:27:13;1.02;;;0.50;;
27684;SDS011;46113;50.130;8.526;2023-06-04T21:29:48;0.68;;;0.68;;
27684;SDS011;46113;50.130;8.526;2023-06-04T21:32:15;1.48;;;0.80;;
27684;SDS011;46113;50.130;8.526;2023-06-04T21:34:42;0.82;;;0.70;;
27684;SDS011;46113;50.130;8.526;2023-06-04T21:37:09;1.80;;;0.77;;
27684;SDS011;46113;50.130;8.526;2023-06-04T21:39:36;0.60;;;0.57;;
27684;SDS011;46113;50.130;8.526;2023-06-04T21:42:03;1.77;;;0.70;;
27684;SDS011;46113;50.130;8.526;2023-06-04T21:44:30;1.52;;;0.63;;
27684;SDS011;46113;50.130;8.526;2023-06-04T21:46:57;3.00;;;0.70;;
27684;SDS011;46113;50.130;8.526;2023-06-04T21:49:24;1.20;;;0.73;;
27684;SDS011;46113;50.130;8.526;2023-06-04T21:51:51;0.93;;;0.55;;
27684;SDS011;46113;50.130;8.526;2023-06-04T21:54:17;1.45;;;0.85;;
27684;SDS011;46113;50.130;8.526;2023-06-04T21:56:47;1.65;;;0.75;;
27684;SDS011;46113;50.130;8.526;2023-06-04T21:59:14;0.93;;;0.50;;
27684;SDS011;46113;50.130;8.526;2023-06-04T22:01:41;0.77;;;0.77;;
27684;SDS011;46113;50.130;8.526;2023-06-04T22:04:08;2.67;;;0.70;;
27684;SDS011;46113;50.130;8.526;2023-06-04T22:06:35;1.45;;;0.90;;
27684;SDS011;46113;50.130;8.526;2023-06-04T22:09:03;1.48;;;0.93;;
27684;SDS011;46113;50.130;8.526;2023-06-04T22:11:29;1.08;;;0.60;;
27684;SDS011;46113;50.130;8.526;2023-06-04T22:13:57;2.45;;;0.70;;
27684;SDS011;46113;50.130;8.526;2023-06-04T22:16:23;1.08;;;0.80;;
27684;SDS011;46113;50.130;8.526;2023-06-04T22:18:54;0.85;;;0.70;;
27684;SDS011;46113;50.130;8.526;2023-06-04T22:21:21;3.05;;;0.73;;
27684;SDS011;46113;50.130;8.526;2023-06-04T22:23:48;0.85;;;0.57;;
27684;SDS011;46113;50.130;8.526;2023-06-04T22:26:15;1.98;;;0.80;;
27684;SDS011;46113;50.130;8.526;2023-06-04T22:29:05;1.48;;;0.50;;
27684;SDS011;46113;50.130;8.526;2023-06-04T22:31:34;1.27;;;0.70;;
27684;SDS011;46113;50.130;8.526;2023-06-04T22:34:04;0.55;;;0.47;;
27684;SDS011;46113;50.130;8.526;2023-06-04T22:36:35;0.93;;;0.40;;
27684;SDS011;46113;50.130;8.526;2023-06-04T22:39:02;3.92;;;0.93;;
27684;SDS011;46113;50.130;8.526;2023-06-04T22:41:30;0.73;;;0.68;;
27684;SDS011;46113;50.130;8.526;2023-06-04T22:43:57;3.08;;;0.60;;
27684;SDS011;46113;50.130;8.526;2023-06-04T22:46:24;1.40;;;0.85;;
27684;SDS011;46113;50.130;8.526;2023-06-04T22:48:51;1.33;;;0.63;;
27684;SDS011;46113;50.130;8.526;2023-06-04T22:51:18;0.95;;;0.68;;
27684;SDS011;46113;50.130;8.526;2023-06-04T22:53:48;1.00;;;0.43;;
27684;SDS011;46113;50.130;8.526;2023-06-04T22:56:15;4.13;;;1.27;;
27684;SDS011;46113;50.130;8.526;2023-06-04T22:58:42;6.07;;;0.75;;
27684;SDS011;46113;50.130;8.526;2023-06-04T23:01:09;2.10;;;0.55;;
27684;SDS011;46113;50.130;8.526;2023-06-04T23:03:36;1.65;;;0.57;;
27684;SDS011;46113;50.130;8.526;2023-06-04T23:06:03;0.75;;;0.47;;
27684;SDS011;46113;50.130;8.526;2023-06-04T23:08:31;0.93;;;0.52;;
27684;SDS011;46113;50.130;8.526;2023-06-04T23:10:58;2.40;;;0.60;;
27684;SDS011;46113;50.130;8.526;2023-06-04T23:13:28;2.08;;;0.40;;
27684;SDS011;46113;50.130;8.526;2023-06-04T23:15:55;3.55;;;0.60;;
27684;SDS011;46113;50.130;8.526;2023-06-04T23:18:23;3.10;;;0.90;;
27684;SDS011;46113;50.130;8.526;2023-06-04T23:20:51;1.67;;;0.55;;
27684;SDS011;46113;50.130;8.526;2023-06-04T23:23:18;1.33;;;0.70;;
27684;SDS011;46113;50.130;8.526;2023-06-04T23:25:44;0.80;;;0.55;;
27684;SDS011;46113;50.130;8.526;2023-06-04T23:28:11;2.35;;;0.80;;
27684;SDS011;46113;50.130;8.526;2023-06-04T23:30:39;1.75;;;0.85;;
27684;SDS011;46113;50.130;8.526;2023-06-04T23:33:08;1.73;;;1.08;;
27684;SDS011;46113;50.130;8.526;2023-06-04T23:35:35;2.63;;;0.57;;
27684;SDS011;46113;50.130;8.526;2023-06-04T23:38:02;3.92;;;0.70;;
27684;SDS011;46113;50.130;8.526;2023-06-04T23:40:29;1.20;;;0.70;;
27684;SDS011;46113;50.130;8.526;2023-06-04T23:42:56;1.15;;;0.73;;
27684;SDS011;46113;50.130;8.526;2023-06-04T23:45:23;1.58;;;1.05;;
27684;SDS011;46113;50.130;8.526;2023-06-04T23:47:50;0.82;;;0.32;;
27684;SDS011;46113;50.130;8.526;2023-06-04T23:50:17;0.80;;;0.70;;
27684;SDS011;46113;50.130;8.526;2023-06-04T23:52:43;0.98;;;0.60;;
27684;SDS011;46113;50.130;8.526;2023-06-04T23:55:10;3.50;;;0.90;;
27684;SDS011;46113;50.130;8.526;2023-06-04T23:57:37;1.33;;;0.70;;
